createdAt,value
2022-09-06T00:02:34.088Z,24.90
2022-09-06T00:05:21.041Z,24.90
2022-09-06T00:08:01.158Z,24.90
2022-09-06T00:10:49.014Z,24.80
2022-09-06T00:13:29.142Z,24.80
2022-09-06T00:16:22.073Z,24.80
2022-09-06T00:19:10.014Z,24.80
2022-09-06T00:21:57.088Z,24.80
2022-09-06T00:24:37.001Z,24.80
2022-09-06T00:27:24.097Z,24.70
2022-09-06T00:30:04.006Z,24.80
2022-09-06T00:32:51.090Z,24.70
2022-09-06T00:35:32.045Z,24.70
2022-09-06T00:38:19.081Z,24.70
2022-09-06T00:40:59.014Z,24.70
2022-09-06T00:43:39.938Z,24.60
2022-09-06T00:46:37.103Z,24.60
2022-09-06T00:49:36.013Z,24.60
2022-09-06T00:52:19.780Z,24.60
2022-09-06T00:55:07.017Z,24.60
2022-09-06T00:57:50.882Z,24.60
2022-09-06T01:00:38.024Z,24.60
2022-09-06T01:03:31.996Z,24.50
2022-09-06T01:06:28.027Z,24.50
2022-09-06T01:09:36.101Z,24.50
2022-09-06T01:12:39.026Z,24.50
2022-09-06T01:15:38.107Z,24.50
2022-09-06T01:19:01.029Z,24.40
2022-09-06T01:21:44.067Z,24.40
2022-09-06T01:24:40.046Z,24.40
2022-09-06T01:27:42.040Z,24.40
2022-09-06T01:30:23.103Z,24.40
2022-09-06T01:33:30.032Z,24.30
2022-09-06T01:36:24.022Z,24.30
2022-09-06T01:39:04.097Z,24.30
2022-09-06T01:41:51.018Z,24.30
2022-09-06T01:44:41.045Z,24.40
2022-09-06T01:47:31.029Z,24.30
2022-09-06T01:50:27.043Z,24.30
2022-09-06T01:53:47.087Z,24.30
2022-09-06T01:56:38.050Z,24.30
2022-09-06T01:59:27.482Z,24.20
2022-09-06T02:02:22.070Z,24.20
2022-09-06T02:05:20.033Z,24.20
2022-09-06T02:08:13.028Z,24.20
2022-09-06T02:11:07.705Z,24.20
2022-09-06T02:14:20.021Z,24.20
2022-09-06T02:17:02.939Z,24.20
2022-09-06T02:20:00.013Z,24.20
2022-09-06T02:22:51.045Z,24.10
2022-09-06T02:25:50.042Z,24.10
2022-09-06T02:28:37.047Z,24.10
2022-09-06T02:31:32.058Z,24.10
2022-09-06T02:34:23.084Z,24.10
2022-09-06T02:37:04.037Z,24.20
2022-09-06T02:39:51.109Z,24.20
2022-09-06T02:42:32.050Z,24.20
2022-09-06T02:45:19.100Z,24.10
2022-09-06T02:47:59.017Z,24.20
2022-09-06T02:50:39.517Z,24.10
2022-09-06T02:53:27.029Z,24.10
2022-09-06T02:56:14.149Z,24.10
2022-09-06T02:58:54.038Z,24.00
2022-09-06T03:01:34.770Z,24.00
2022-09-06T03:04:21.038Z,24.00
2022-09-06T03:07:08.082Z,24.00
2022-09-06T03:09:48.039Z,23.90
2022-09-06T03:12:35.041Z,23.90
2022-09-06T03:15:16.096Z,23.80
2022-09-06T03:18:07.037Z,23.90
2022-09-06T03:20:47.159Z,23.80
2022-09-06T03:23:35.045Z,23.80
2022-09-06T03:26:22.033Z,23.80
2022-09-06T03:29:09.097Z,23.80
2022-09-06T03:31:49.040Z,23.80
2022-09-06T03:34:29.546Z,23.70
2022-09-06T03:37:16.049Z,23.80
2022-09-06T03:40:03.082Z,23.70
2022-09-06T03:42:43.148Z,23.70
2022-09-06T03:45:30.086Z,23.70
2022-09-06T03:48:10.094Z,23.60
2022-09-06T03:51:01.042Z,23.60
2022-09-06T03:53:41.317Z,23.60
2022-09-06T03:56:28.045Z,23.60
2022-09-06T03:59:08.152Z,23.60
2022-09-06T04:01:55.096Z,23.50
2022-09-06T04:04:42.094Z,23.50
2022-09-06T04:07:22.046Z,23.50
2022-09-06T04:10:10.048Z,23.50
2022-09-06T04:12:51.101Z,23.40
2022-09-06T04:15:38.050Z,23.40
2022-09-06T04:18:18.126Z,23.40
2022-09-06T04:21:05.056Z,23.40
2022-09-06T04:23:45.090Z,23.40
2022-09-06T04:26:32.054Z,23.40
2022-09-06T04:29:12.118Z,23.30
2022-09-06T04:31:59.079Z,23.30
2022-09-06T04:34:46.062Z,23.30
2022-09-06T04:37:33.086Z,23.30
2022-09-06T04:40:14.069Z,23.30
2022-09-06T04:43:01.126Z,23.30
2022-09-06T04:45:41.096Z,23.30
2022-09-06T04:48:28.223Z,23.30
2022-09-06T04:51:08.047Z,23.40
2022-09-06T04:53:55.137Z,23.40
2022-09-06T04:56:35.045Z,23.50
2022-09-06T04:59:15.532Z,23.50
2022-09-06T05:02:02.123Z,23.60
2022-09-06T05:04:49.121Z,23.60
2022-09-06T05:07:29.061Z,23.60
2022-09-06T05:10:16.053Z,23.60
2022-09-06T05:13:01.122Z,23.60
2022-09-06T05:15:48.060Z,23.60
2022-09-06T05:18:28.209Z,23.70
2022-09-06T05:21:15.061Z,23.70
2022-09-06T05:23:58.456Z,23.80
2022-09-06T05:26:45.090Z,23.80
2022-09-06T05:29:28.761Z,23.80
2022-09-06T05:32:17.066Z,23.80
2022-09-06T05:34:57.118Z,23.80
2022-09-06T05:37:44.073Z,23.70
2022-09-06T05:40:24.141Z,23.70
2022-09-06T05:43:11.071Z,23.70
2022-09-06T05:45:51.172Z,23.60
2022-09-06T05:48:38.155Z,23.60
2022-09-06T05:51:27.076Z,23.60
2022-09-06T05:54:14.115Z,23.50
2022-09-06T05:56:54.072Z,23.50
2022-09-06T05:59:41.076Z,23.50
2022-09-06T06:02:36.118Z,23.50
2022-09-06T06:05:23.073Z,23.40
2022-09-06T06:08:10.118Z,23.40
2022-09-06T06:10:50.571Z,23.50
2022-09-06T06:13:38.065Z,23.50
2022-09-06T06:16:20.662Z,23.50
2022-09-06T06:19:07.071Z,23.50
2022-09-06T06:21:55.809Z,23.50
2022-09-06T06:24:35.081Z,23.50
2022-09-06T06:27:22.109Z,23.60
2022-09-06T06:30:02.074Z,23.60
2022-09-06T06:32:42.535Z,23.60
2022-09-06T06:35:29.075Z,23.70
2022-09-06T06:38:16.073Z,23.80
2022-09-06T06:41:06.528Z,23.90
2022-09-06T06:43:54.071Z,24.00
2022-09-06T06:46:43.068Z,24.20
2022-09-06T06:49:31.089Z,24.30
2022-09-06T06:52:11.158Z,24.50
2022-09-06T06:54:58.072Z,24.70
2022-09-06T06:57:38.162Z,24.90
2022-09-06T07:00:28.166Z,25.20
2022-09-06T07:03:23.090Z,25.50
2022-09-06T07:06:11.672Z,25.80
2022-09-06T07:09:00.096Z,26.10
2022-09-06T07:11:47.076Z,26.40
2022-09-06T07:14:34.073Z,26.70
2022-09-06T07:17:21.138Z,27.00
2022-09-06T07:20:16.732Z,27.30
2022-09-06T07:26:11.082Z,27.80
2022-09-06T07:29:10.092Z,28.10
2022-09-06T07:32:13.432Z,28.20
2022-09-06T07:34:53.202Z,28.40
2022-09-06T07:37:40.079Z,28.60
2022-09-06T07:40:20.141Z,28.70
2022-09-06T07:43:07.107Z,28.90
2022-09-06T07:45:47.554Z,29.10
2022-09-06T07:48:38.093Z,29.20
2022-09-06T07:51:34.101Z,29.40
2022-09-06T07:54:36.365Z,29.60
2022-09-06T07:57:16.139Z,29.70
2022-09-06T08:00:03.069Z,30.00
2022-09-06T08:02:52.082Z,30.00
2022-09-06T08:11:46.088Z,30.40
2022-09-06T08:14:26.164Z,30.50
2022-09-06T08:17:13.119Z,30.70
2022-09-06T08:19:53.194Z,30.70
2022-09-06T08:22:40.107Z,30.80
2022-09-06T08:25:20.356Z,30.90
2022-09-06T08:28:07.122Z,31.00
2022-09-06T08:30:54.099Z,31.10
2022-09-06T08:33:42.179Z,31.20
2022-09-06T08:36:22.102Z,31.20
2022-09-06T08:39:12.153Z,31.40
2022-09-06T08:42:09.119Z,31.40
2022-09-06T08:45:02.228Z,31.50
2022-09-06T08:47:42.118Z,31.50
2022-09-06T08:50:30.187Z,31.60
2022-09-06T08:53:24.125Z,31.60
2022-09-06T08:56:30.168Z,31.70
2022-09-06T08:59:21.121Z,31.70
2022-09-06T09:02:14.780Z,31.80
2022-09-06T09:05:11.101Z,31.80
2022-09-06T09:08:27.293Z,31.90
2022-09-06T09:11:32.105Z,31.90
2022-09-06T09:14:20.199Z,31.90
2022-09-06T09:17:13.114Z,32.00
2022-09-06T09:20:00.189Z,32.00
2022-09-06T09:22:48.134Z,32.00
2022-09-06T09:25:30.186Z,32.00
2022-09-06T09:28:24.175Z,32.00
2022-09-06T09:31:11.168Z,32.00
2022-09-06T09:33:52.360Z,32.10
2022-09-06T09:36:39.135Z,32.10
2022-09-06T09:39:26.242Z,32.10
2022-09-06T09:42:06.123Z,32.10
2022-09-06T09:44:53.228Z,32.20
2022-09-06T09:47:38.113Z,32.10
2022-09-06T09:50:43.115Z,32.10
2022-09-06T09:53:26.969Z,32.10
2022-09-06T09:56:13.132Z,32.10
2022-09-06T09:58:53.680Z,32.10
2022-09-06T10:01:41.125Z,32.00
2022-09-06T10:07:34.117Z,31.90
2022-09-06T10:10:20.185Z,31.90
2022-09-06T10:13:25.127Z,31.90
2022-09-06T10:16:07.245Z,31.90
2022-09-06T10:18:59.129Z,31.90
2022-09-06T10:21:39.194Z,31.90
2022-09-06T10:24:51.144Z,31.90
2022-09-06T10:27:36.099Z,32.00
2022-09-06T10:30:26.142Z,32.00
2022-09-06T10:33:45.129Z,31.90
2022-09-06T10:37:09.191Z,31.80
2022-09-06T10:40:02.202Z,31.80
2022-09-06T10:42:54.087Z,31.80
2022-09-06T10:45:45.136Z,31.70
2022-09-06T10:48:52.132Z,31.60
2022-09-06T10:51:32.230Z,31.50
2022-09-06T10:54:27.141Z,31.50
2022-09-06T11:00:23.642Z,31.20
2022-09-06T11:06:32.144Z,31.20
2022-09-06T11:09:36.218Z,31.20
2022-09-06T11:12:36.154Z,31.10
2022-09-06T11:15:20.260Z,31.10
2022-09-06T11:18:25.199Z,31.10
2022-09-06T11:21:31.267Z,31.00
2022-09-06T11:24:33.170Z,31.10
2022-09-06T11:27:34.252Z,31.00
2022-09-06T11:30:23.166Z,30.90
2022-09-06T11:33:31.361Z,30.80
2022-09-06T11:36:41.157Z,30.70
2022-09-06T11:43:09.160Z,30.50
2022-09-06T11:46:03.229Z,30.50
2022-09-06T11:49:12.219Z,30.50
2022-09-06T11:51:53.149Z,30.50
2022-09-06T11:54:49.185Z,30.50
2022-09-06T11:57:30.158Z,30.40
2022-09-06T12:00:20.238Z,30.50
2022-09-06T12:06:26.165Z,30.40
2022-09-06T12:09:07.205Z,30.40
2022-09-06T12:11:55.162Z,30.40
2022-09-06T12:14:42.164Z,30.30
2022-09-06T12:17:31.163Z,30.30
2022-09-06T12:20:19.149Z,30.20
2022-09-06T12:22:59.734Z,30.20
2022-09-06T12:25:49.175Z,30.10
2022-09-06T12:28:56.610Z,30.10
2022-09-06T12:32:07.160Z,30.10
2022-09-06T12:38:06.849Z,30.00
2022-09-06T12:40:58.343Z,29.90
2022-09-06T12:43:38.229Z,29.90
2022-09-06T12:46:25.181Z,29.90
2022-09-06T12:49:16.235Z,29.80
2022-09-06T12:52:19.175Z,29.80
2022-09-06T12:54:59.242Z,29.70
2022-09-06T12:57:54.185Z,29.70
2022-09-06T13:00:43.285Z,29.60
2022-09-06T13:03:56.172Z,29.60
2022-09-06T13:06:50.205Z,29.60
2022-09-06T13:09:32.288Z,29.50
2022-09-06T13:12:46.189Z,29.40
2022-09-06T13:15:31.343Z,29.40
2022-09-06T13:18:42.185Z,29.30
2022-09-06T13:21:34.276Z,29.30
2022-09-06T13:24:31.186Z,29.30
2022-09-06T13:27:31.346Z,29.20
2022-09-06T13:30:52.256Z,29.10
2022-09-06T13:33:33.271Z,29.10
2022-09-06T13:36:20.190Z,29.00
2022-09-06T13:39:03.347Z,29.00
2022-09-06T13:41:51.189Z,28.90
2022-09-06T13:44:39.255Z,28.90
2022-09-06T13:47:26.184Z,28.80
2022-09-06T13:50:06.227Z,28.80
2022-09-06T13:52:53.199Z,28.80
2022-09-06T13:55:55.176Z,28.70
2022-09-06T13:58:43.189Z,28.70
2022-09-06T14:01:23.329Z,28.60
2022-09-06T14:04:11.190Z,28.60
2022-09-06T14:06:51.361Z,28.60
2022-09-06T14:09:38.190Z,28.50
2022-09-06T14:12:18.257Z,28.50
2022-09-06T14:15:05.205Z,28.50
2022-09-06T14:17:46.725Z,28.40
2022-09-06T14:20:33.204Z,28.40
2022-09-06T14:23:21.195Z,28.40
2022-09-06T14:26:10.575Z,28.40
2022-09-06T14:28:50.224Z,28.40
2022-09-06T14:31:32.590Z,28.40
2022-09-06T14:34:19.197Z,28.30
2022-09-06T14:37:09.251Z,28.30
2022-09-06T14:39:51.244Z,28.30
2022-09-06T14:42:38.239Z,28.20
2022-09-06T14:45:18.217Z,28.20
2022-09-06T14:47:58.690Z,28.20
2022-09-06T14:50:45.214Z,28.20
2022-09-06T14:53:40.085Z,28.20
2022-09-06T14:56:27.208Z,28.20
2022-09-06T14:59:09.115Z,28.20
2022-09-06T15:01:56.250Z,28.10
2022-09-06T15:04:50.208Z,28.10
2022-09-06T15:07:38.120Z,28.10
2022-09-06T15:10:18.213Z,28.10
2022-09-06T15:13:08.378Z,28.10
2022-09-06T15:15:48.240Z,28.00
2022-09-06T15:18:35.241Z,28.00
2022-09-06T15:21:20.286Z,28.00
2022-09-06T15:24:11.678Z,28.00
2022-09-06T15:26:52.473Z,27.90
2022-09-06T15:29:39.210Z,27.90
2022-09-06T15:32:19.261Z,27.90
2022-09-06T15:35:07.213Z,27.90
2022-09-06T15:37:47.260Z,27.80
2022-09-06T15:40:34.221Z,27.80
2022-09-06T15:43:21.230Z,27.80
2022-09-06T15:46:15.310Z,27.80
2022-09-06T15:49:03.944Z,27.80
2022-09-06T15:51:46.607Z,27.70
2022-09-06T15:54:53.213Z,27.70
2022-09-06T15:57:40.239Z,27.70
2022-09-06T16:00:27.285Z,27.70
2022-09-06T16:03:07.244Z,27.70
2022-09-06T16:08:55.265Z,27.70
2022-09-06T16:11:43.338Z,27.70
2022-09-06T16:14:24.207Z,27.70
2022-09-06T16:17:04.804Z,27.60
2022-09-06T16:19:52.214Z,27.60
2022-09-06T16:22:39.326Z,27.60
2022-09-06T16:25:19.217Z,27.60
2022-09-06T16:28:06.269Z,27.60
2022-09-06T16:30:50.267Z,27.60
2022-09-06T16:33:39.213Z,27.60
2022-09-06T16:36:19.289Z,27.60
2022-09-06T16:39:06.224Z,27.60
2022-09-06T16:41:51.286Z,27.60
2022-09-06T16:44:38.221Z,27.60
2022-09-06T16:47:25.205Z,27.60
2022-09-06T16:50:12.224Z,27.60
2022-09-06T16:52:52.658Z,27.60
2022-09-06T16:55:44.238Z,27.60
2022-09-06T16:58:24.315Z,27.50
2022-09-06T17:01:11.314Z,27.50
2022-09-06T17:03:59.279Z,27.60
2022-09-06T17:06:40.224Z,27.60
2022-09-06T17:09:27.363Z,27.60
2022-09-06T17:12:07.250Z,27.50
2022-09-06T17:14:54.378Z,27.50
2022-09-06T17:17:34.238Z,27.50
2022-09-06T17:20:21.284Z,27.50
2022-09-06T17:23:01.239Z,27.50
2022-09-06T17:25:43.249Z,27.50
2022-09-06T17:28:30.252Z,27.50
2022-09-06T17:31:19.940Z,27.50
2022-09-06T17:34:02.363Z,27.50
2022-09-06T17:36:49.233Z,27.40
2022-09-06T17:39:29.574Z,27.40
2022-09-06T17:42:16.252Z,27.40
2022-09-06T17:45:03.224Z,27.40
2022-09-06T17:47:44.046Z,27.40
2022-09-06T17:50:30.243Z,27.40
2022-09-06T17:53:10.980Z,27.40
2022-09-06T17:55:58.260Z,27.40
2022-09-06T17:58:40.867Z,27.40
2022-09-06T18:01:28.289Z,27.40
2022-09-06T18:04:24.249Z,27.40
2022-09-06T18:07:04.815Z,27.30
2022-09-06T18:09:51.268Z,27.30
2022-09-06T18:12:38.983Z,27.30
2022-09-06T18:15:18.249Z,27.30
2022-09-06T18:18:05.231Z,27.30
2022-09-06T18:20:45.485Z,27.30
2022-09-06T18:23:32.246Z,27.30
2022-09-06T18:26:15.378Z,27.30
2022-09-06T18:29:02.253Z,27.30
2022-09-06T18:31:42.779Z,27.30
2022-09-06T18:34:29.242Z,27.30
2022-09-06T18:37:16.239Z,27.20
2022-09-06T18:40:03.561Z,27.20
2022-09-06T18:42:43.404Z,27.20
2022-09-06T18:45:30.455Z,27.20
2022-09-06T18:48:10.991Z,27.20
2022-09-06T18:50:59.848Z,27.20
2022-09-06T18:53:47.329Z,27.20
2022-09-06T18:56:35.540Z,27.20
2022-09-06T18:59:15.429Z,27.20
2022-09-06T19:02:02.351Z,27.20
2022-09-06T19:04:56.251Z,27.20
2022-09-06T19:07:43.249Z,27.20
2022-09-06T19:10:30.274Z,27.20
2022-09-06T19:13:17.257Z,27.20
2022-09-06T19:15:57.312Z,27.20
2022-09-06T19:18:45.280Z,27.10
2022-09-06T19:21:27.464Z,27.10
2022-09-06T19:24:16.281Z,27.10
2022-09-06T19:26:56.393Z,27.10
2022-09-06T19:29:43.248Z,27.10
2022-09-06T19:32:23.309Z,27.20
2022-09-06T19:35:10.253Z,27.10
2022-09-06T19:37:50.432Z,27.10
2022-09-06T19:40:37.392Z,27.10
2022-09-06T19:43:17.631Z,27.10
2022-09-06T19:46:08.262Z,27.00
2022-09-06T19:48:56.450Z,27.00
2022-09-06T19:51:43.278Z,27.00
2022-09-06T19:54:23.314Z,26.90
2022-09-06T19:57:10.290Z,27.00
2022-09-06T19:59:50.308Z,27.00
2022-09-06T20:02:37.316Z,27.00
2022-09-06T20:05:31.280Z,27.00
2022-09-06T20:08:18.269Z,27.10
2022-09-06T20:11:10.294Z,27.00
2022-09-06T20:13:57.321Z,26.90
2022-09-06T20:16:44.336Z,26.90
2022-09-06T20:19:31.322Z,26.80
2022-09-06T20:22:11.276Z,26.80
2022-09-06T20:24:51.839Z,26.80
2022-09-06T20:27:41.374Z,26.70
2022-09-06T20:30:32.432Z,26.70
2022-09-06T20:33:12.274Z,26.70
2022-09-06T20:36:02.913Z,26.60
2022-09-06T20:38:51.278Z,26.70
2022-09-06T20:41:38.309Z,26.70
2022-09-06T20:44:18.276Z,26.70
2022-09-06T20:47:05.303Z,26.80
2022-09-06T20:49:52.294Z,26.70
2022-09-06T20:52:32.753Z,26.70
2022-09-06T20:55:20.381Z,26.70
2022-09-06T20:58:07.385Z,26.70
2022-09-06T21:00:47.420Z,26.70
2022-09-06T21:03:27.810Z,26.70
2022-09-06T21:06:14.281Z,26.70
2022-09-06T21:09:02.348Z,26.70
2022-09-06T21:11:43.295Z,26.70
2022-09-06T21:14:30.269Z,26.60
2022-09-06T21:17:10.467Z,26.60
2022-09-06T21:19:57.266Z,26.60
2022-09-06T21:22:44.277Z,26.60
2022-09-06T21:25:24.768Z,26.60
2022-09-06T21:28:11.302Z,26.50
2022-09-06T21:31:08.551Z,26.50
2022-09-06T21:33:54.273Z,26.50
2022-09-06T21:36:43.298Z,26.50
2022-09-06T21:39:23.361Z,26.40
2022-09-06T21:42:10.308Z,26.40
2022-09-06T21:44:50.335Z,26.40
2022-09-06T21:47:38.305Z,26.40
2022-09-06T21:50:25.280Z,26.30
2022-09-06T21:53:12.329Z,26.30
2022-09-06T21:55:52.289Z,26.30
2022-09-06T21:58:33.349Z,26.30
2022-09-06T22:01:22.348Z,26.30
2022-09-06T22:04:17.285Z,26.30
2022-09-06T22:07:04.309Z,26.30
2022-09-06T22:09:44.393Z,26.20
2022-09-06T22:12:31.287Z,26.20
2022-09-06T22:15:18.292Z,26.20
2022-09-06T22:18:05.291Z,26.20
2022-09-06T22:20:52.293Z,26.20
2022-09-06T22:23:39.305Z,26.20
2022-09-06T22:26:26.316Z,26.20
2022-09-06T22:29:09.462Z,26.20
2022-09-06T22:31:56.338Z,26.20
2022-09-06T22:34:37.221Z,26.20
2022-09-06T22:37:25.301Z,26.10
2022-09-06T22:40:06.381Z,26.10
2022-09-06T22:42:53.314Z,26.10
2022-09-06T22:45:40.481Z,26.10
2022-09-06T22:48:20.314Z,26.10
2022-09-06T22:51:08.354Z,26.00
2022-09-06T22:53:48.297Z,26.00
2022-09-06T22:56:35.812Z,25.90
2022-09-06T22:59:15.314Z,25.90
2022-09-06T23:02:02.355Z,25.80
2022-09-06T23:04:42.354Z,25.70
2022-09-06T23:07:29.387Z,25.60
2022-09-06T23:10:09.294Z,25.50
2022-09-06T23:12:52.545Z,25.40
2022-09-06T23:15:39.307Z,25.30
2022-09-06T23:18:19.765Z,25.30
2022-09-06T23:21:06.307Z,25.20
2022-09-06T23:23:55.296Z,25.10
2022-09-06T23:26:37.470Z,25.00
2022-09-06T23:29:24.301Z,24.90
2022-09-06T23:32:04.372Z,24.90
2022-09-06T23:34:51.302Z,24.70
2022-09-06T23:37:31.373Z,24.60
2022-09-06T23:40:18.390Z,24.50
2022-09-06T23:43:05.309Z,24.50
2022-09-06T23:45:45.794Z,24.40
2022-09-06T23:48:32.452Z,24.40
2022-09-06T23:51:20.448Z,24.30
2022-09-06T23:54:01.314Z,24.20
2022-09-06T23:56:48.385Z,24.20
2022-09-06T23:59:28.320Z,24.10
